Kynouria — V7VY6 — position and weather

sailwx.info

Track history (hours):
 
Tides and Currents Weather Stations Pressure Air Temp Water Temp Dewpoint Dewpoint Depression Visibility Wind Speed Wind Dir Waves Ship Positions

Kynouria

Last reported at 2014-Oct-22 18:33 UTC. Time now 2014-Oct-23 18:39 UTC.
Position S 35°08' W 057°02'.

Length 229 m; draft 10.5 m.

Type: Cargo ship. MMSI: 538004243.

Date/timePositionNaut miles runAvg speedWind from/ knotsBaromVisibWave heightAir tempDewpointWater temp
2014-Oct-22 18:33S 35°08' W 057°02'2110.6
2014-Oct-22 16:33S 34°53' W 057°20'8 7.6
2014-Oct-22 15:33S 34°49' W 057°27'9 8.5
2014-Oct-22 14:33S 34°45' W 057°37'1111.2
2014-Oct-22 13:33S 34°43' W 057°50'0 0.3
2014-Oct-22 12:33S 34°44' W 057°50'0 0.0
2014-Oct-22 11:33S 34°44' W 057°50'0 0.1
2014-Oct-22 10:33S 34°44' W 057°50'0 0.2
2014-Oct-22 09:33S 34°44' W 057°50'0 0.0
2014-Oct-22 08:33S 34°44' W 057°50'0 0.0
2014-Oct-22 07:33S 34°44' W 057°50'0 0.0
2014-Oct-22 06:33S 34°44' W 057°51'0 0.0
2014-Oct-22 05:33S 34°44' W 057°51'0 0.0
2014-Oct-22 04:33S 34°44' W 057°50'0 0.1
2014-Oct-22 03:33S 34°44' W 057°50'0 0.1
2014-Oct-22 02:33S 34°44' W 057°50'0 0.1
2014-Oct-22 01:33S 34°44' W 057°50'0 0.1
2014-Oct-22 00:33S 34°44' W 057°50'0 0.0
2014-Oct-21 23:33S 34°44' W 057°50'0 0.0
2014-Oct-21 22:33S 34°44' W 057°50'0 0.0
2014-Oct-21 21:33S 34°44' W 057°50'0 0.0
2014-Oct-21 20:33S 34°44' W 057°50'0 0.0
2014-Oct-21 19:33S 34°44' W 057°50'0 0.0
2014-Oct-21 18:33S 34°44' W 057°50'0 0.0
2014-Oct-21 17:33S 34°44' W 057°50'0 0.0
2014-Oct-21 16:33S 34°44' W 057°50'0 0.0
2014-Oct-21 15:33S 34°44' W 057°50'0 0.0
2014-Oct-21 14:30S 34°44' W 057°50'0 0.0
2014-Oct-21 13:33S 34°44' W 057°50'0 0.0
2014-Oct-21 12:33S 34°44' W 057°50'0 0.0
2014-Oct-21 11:33S 34°44' W 057°50'0 0.0
2014-Oct-21 10:33S 34°44' W 057°50'0 0.0
2014-Oct-21 09:33S 34°44' W 057°50'0 0.0
2014-Oct-21 08:33S 34°44' W 057°50'0 0.1
2014-Oct-21 07:33S 34°44' W 057°50'0 0.1
2014-Oct-21 06:33S 34°44' W 057°50'0 0.0
2014-Oct-21 05:33S 34°44' W 057°51'0 0.0
2014-Oct-21 04:33S 34°44' W 057°50'0 0.1
2014-Oct-21 03:33S 34°44' W 057°50'0 0.0
2014-Oct-21 02:33S 34°44' W 057°50'0 0.0
2014-Oct-21 01:33S 34°44' W 057°50'0 0.0
2014-Oct-21 00:33S 34°44' W 057°50'0 0.1
2014-Oct-20 23:33S 34°44' W 057°50'0 0.0
2014-Oct-20 22:33S 34°44' W 057°50'0 0.0
2014-Oct-20 21:33S 34°44' W 057°50'0 0.0
2014-Oct-20 20:33S 34°44' W 057°50'0 0.0
2014-Oct-20 19:33S 34°44' W 057°50'0 0.0
2014-Oct-20 18:33S 34°44' W 057°50'0 0.0
2014-Oct-20 17:33S 34°44' W 057°50'0 0.0
2014-Oct-20 16:33S 34°44' W 057°50'0 0.0
2014-Oct-20 15:33S 34°44' W 057°50'0 0.0
2014-Oct-20 14:33S 34°44' W 057°50'0 0.0
2014-Oct-20 13:30S 34°44' W 057°50'0 0.0
2014-Oct-20 12:33S 34°44' W 057°50'0 0.0
2014-Oct-20 10:33S 34°44' W 057°50'0 0.2
2014-Oct-20 09:33S 34°43' W 057°50'0 0.1
2014-Oct-20 08:30S 34°44' W 057°51'0 0.0
2014-Oct-20 07:33S 34°44' W 057°51'0 0.0
2014-Oct-20 06:33S 34°44' W 057°51'0 0.0
2014-Oct-20 05:33S 34°44' W 057°51'0 0.0
2014-Oct-20 04:33S 34°44' W 057°51'0 0.0
2014-Oct-20 03:33S 34°44' W 057°51'0 0.0
2014-Oct-20 02:33S 34°44' W 057°51'0 0.2
2014-Oct-20 01:33S 34°44' W 057°50'0 0.1
2014-Oct-20 00:33S 34°44' W 057°50'0 0.2
2014-Oct-19 23:33S 34°43' W 057°50'4 4.5
2014-Oct-19 22:33S 34°42' W 057°55'1312.7
2014-Oct-19 21:33S 34°37' W 058°10'1110.5
2014-Oct-19 20:33S 34°31' W 058°20'1310.4
2014-Oct-19 19:16S 34°20' W 058°29'124 9.0
2014-Oct-19 05:31S 33°08' W 060°30'  
Track history (hours):
 
Tides and Currents Weather Stations Pressure Air Temp Water Temp Dewpoint Dewpoint Depression Visibility Wind Speed Wind Dir Waves Ship Positions

Kynouria

Last reported at 2014-Oct-22 18:33 UTC. Time now 2014-Oct-23 18:39 UTC.
Position S 35°08' W 057°02'.

Length 229 m; draft 10.5 m.

Type: Cargo ship. MMSI: 538004243.

Date/timePositionNaut miles runAvg speedWind from/ knotsBaromVisibWave heightAir tempDewpointWater temp
2014-Oct-22 18:33S 35°08' W 057°02'2110.6
2014-Oct-22 16:33S 34°53' W 057°20'8 7.6
2014-Oct-22 15:33S 34°49' W 057°27'9 8.5
2014-Oct-22 14:33S 34°45' W 057°37'1111.2
2014-Oct-22 13:33S 34°43' W 057°50'0 0.3
2014-Oct-22 12:33S 34°44' W 057°50'0 0.0
2014-Oct-22 11:33S 34°44' W 057°50'0 0.1
2014-Oct-22 10:33S 34°44' W 057°50'0 0.2
2014-Oct-22 09:33S 34°44' W 057°50'0 0.0
2014-Oct-22 08:33S 34°44' W 057°50'0 0.0
2014-Oct-22 07:33S 34°44' W 057°50'0 0.0
2014-Oct-22 06:33S 34°44' W 057°51'0 0.0
2014-Oct-22 05:33S 34°44' W 057°51'0 0.0
2014-Oct-22 04:33S 34°44' W 057°50'0 0.1
2014-Oct-22 03:33S 34°44' W 057°50'0 0.1
2014-Oct-22 02:33S 34°44' W 057°50'0 0.1
2014-Oct-22 01:33S 34°44' W 057°50'0 0.1
2014-Oct-22 00:33S 34°44' W 057°50'0 0.0
2014-Oct-21 23:33S 34°44' W 057°50'0 0.0
2014-Oct-21 22:33S 34°44' W 057°50'0 0.0
2014-Oct-21 21:33S 34°44' W 057°50'0 0.0
2014-Oct-21 20:33S 34°44' W 057°50'0 0.0
2014-Oct-21 19:33S 34°44' W 057°50'0 0.0
2014-Oct-21 18:33S 34°44' W 057°50'0 0.0
2014-Oct-21 17:33S 34°44' W 057°50'0 0.0
2014-Oct-21 16:33S 34°44' W 057°50'0 0.0
2014-Oct-21 15:33S 34°44' W 057°50'0 0.0
2014-Oct-21 14:30S 34°44' W 057°50'0 0.0
2014-Oct-21 13:33S 34°44' W 057°50'0 0.0
2014-Oct-21 12:33S 34°44' W 057°50'0 0.0
2014-Oct-21 11:33S 34°44' W 057°50'0 0.0
2014-Oct-21 10:33S 34°44' W 057°50'0 0.0
2014-Oct-21 09:33S 34°44' W 057°50'0 0.0
2014-Oct-21 08:33S 34°44' W 057°50'0 0.1
2014-Oct-21 07:33S 34°44' W 057°50'0 0.1
2014-Oct-21 06:33S 34°44' W 057°50'0 0.0
2014-Oct-21 05:33S 34°44' W 057°51'0 0.0
2014-Oct-21 04:33S 34°44' W 057°50'0 0.1
2014-Oct-21 03:33S 34°44' W 057°50'0 0.0
2014-Oct-21 02:33S 34°44' W 057°50'0 0.0
2014-Oct-21 01:33S 34°44' W 057°50'0 0.0
2014-Oct-21 00:33S 34°44' W 057°50'0 0.1
2014-Oct-20 23:33S 34°44' W 057°50'0 0.0
2014-Oct-20 22:33S 34°44' W 057°50'0 0.0
2014-Oct-20 21:33S 34°44' W 057°50'0 0.0
2014-Oct-20 20:33S 34°44' W 057°50'0 0.0
2014-Oct-20 19:33S 34°44' W 057°50'0 0.0
2014-Oct-20 18:33S 34°44' W 057°50'0 0.0
2014-Oct-20 17:33S 34°44' W 057°50'0 0.0
2014-Oct-20 16:33S 34°44' W 057°50'0 0.0
2014-Oct-20 15:33S 34°44' W 057°50'0 0.0
2014-Oct-20 14:33S 34°44' W 057°50'0 0.0
2014-Oct-20 13:30S 34°44' W 057°50'0 0.0
2014-Oct-20 12:33S 34°44' W 057°50'0 0.0
2014-Oct-20 10:33S 34°44' W 057°50'0 0.2
2014-Oct-20 09:33S 34°43' W 057°50'0 0.1
2014-Oct-20 08:30S 34°44' W 057°51'0 0.0
2014-Oct-20 07:33S 34°44' W 057°51'0 0.0
2014-Oct-20 06:33S 34°44' W 057°51'0 0.0
2014-Oct-20 05:33S 34°44' W 057°51'0 0.0
2014-Oct-20 04:33S 34°44' W 057°51'0 0.0
2014-Oct-20 03:33S 34°44' W 057°51'0 0.0
2014-Oct-20 02:33S 34°44' W 057°51'0 0.2
2014-Oct-20 01:33S 34°44' W 057°50'0 0.1
2014-Oct-20 00:33S 34°44' W 057°50'0 0.2
2014-Oct-19 23:33S 34°43' W 057°50'4 4.5
2014-Oct-19 22:33S 34°42' W 057°55'1312.7
2014-Oct-19 21:33S 34°37' W 058°10'1110.5
2014-Oct-19 20:33S 34°31' W 058°20'1310.4
2014-Oct-19 19:16S 34°20' W 058°29'124 9.0
2014-Oct-19 05:31S 33°08' W 060°30'  

Dump ship's entire track history